Time;durP1;ratioP1;P1;durP2;ratioP2;P2;SDS_P1;SDS_P2;PMS_P1;PMS_P2;Temp;Humidity;BMP_temperature;BMP_pressure;BME280_temperature;BME280_humidity;BME280_pressure;Samples;Min_cycle;Max_cycle;Signal;HPM_P1;HPM_P2
2022/06/01 00:00:09;;;;;;;5.90;4.10;;;;;;;;;;2076892;28;20053;-82
2022/06/01 00:01:28;;;;;;;4.20;3.90;;;;;;;;;;2077701;28;20034;-82
2022/06/01 00:02:47;;;;;;;4.63;4.32;;;;;;;;;;2078136;28;20122;-82
2022/06/01 00:04:06;;;;;;;5.07;3.60;;;;;;;;;;2075861;28;20022;-82
2022/06/01 00:05:25;;;;;;;5.80;4.25;;;;;;;;;;2077423;28;20025;-82
2022/06/01 00:06:44;;;;;;;4.97;4.57;;;;;;;;;;2076319;28;20471;-82
2022/06/01 00:08:03;;;;;;;4.45;4.10;;;;;;;;;;2077230;28;20523;-81
2022/06/01 00:09:22;;;;;;;4.80;4.32;;;;;;;;;;2081441;28;20076;-81
2022/06/01 00:10:41;;;;;;;3.95;3.65;;;;;;;;;;2080546;28;20034;-81
2022/06/01 00:12:00;;;;;;;4.90;4.43;;;;;;;;;;2073520;28;20034;-81
2022/06/01 00:13:19;;;;;;;4.65;4.25;;;;;;;;;;2077223;28;20042;-81
2022/06/01 00:14:38;;;;;;;4.22;3.92;;;;;;;;;;2076123;28;20030;-81
2022/06/01 00:15:57;;;;;;;4.40;4.10;;;;;;;;;;2076856;28;20112;-81
2022/06/01 00:17:16;;;;;;;4.68;4.28;;;;;;;;;;2077280;28;20065;-81
2022/06/01 00:18:36;;;;;;;5.53;4.38;;;;;;;;;;2079209;28;20033;-81
2022/06/01 00:19:55;;;;;;;4.22;3.90;;;;;;;;;;2074238;28;20038;-81
2022/06/01 00:21:14;;;;;;;5.32;3.97;;;;;;;;;;2077335;28;20116;-81
2022/06/01 00:22:33;;;;;;;4.40;4.10;;;;;;;;;;2084065;28;20029;-82
2022/06/01 00:23:52;;;;;;;4.70;3.97;;;;;;;;;;2078385;28;20034;-82
2022/06/01 00:25:12;;;;;;;4.05;3.50;;;;;;;;;;2075480;28;20025;-82
2022/06/01 00:26:30;;;;;;;4.18;3.88;;;;;;;;;;2077211;28;20025;-81
2022/06/01 00:27:50;;;;;;;4.28;3.97;;;;;;;;;;2075934;28;20105;-81
2022/06/01 00:29:08;;;;;;;3.88;3.67;;;;;;;;;;2078200;28;20431;-81
2022/06/01 00:30:27;;;;;;;3.97;3.78;;;;;;;;;;2076857;28;20025;-82
2022/06/01 00:31:46;;;;;;;4.63;4.25;;;;;;;;;;2077821;28;20030;-82
2022/06/01 00:33:05;;;;;;;4.47;4.18;;;;;;;;;;2076353;28;20073;-82
2022/06/01 00:34:25;;;;;;;4.03;3.72;;;;;;;;;;2078403;28;20430;-82
2022/06/01 00:35:43;;;;;;;4.40;4.10;;;;;;;;;;2078655;28;20025;-82
2022/06/01 00:37:03;;;;;;;4.60;4.25;;;;;;;;;;2076883;28;20037;-81
2022/06/01 00:38:22;;;;;;;3.97;3.33;;;;;;;;;;2077189;28;20487;-81
2022/06/01 00:39:44;;;;;;;3.80;3.60;;;;;;;;;;2079964;28;20029;-81
2022/06/01 00:41:02;;;;;;;3.95;3.65;;;;;;;;;;2078169;28;20029;-81
2022/06/01 00:42:23;;;;;;;4.22;4.03;;;;;;;;;;2084440;28;20022;-81
2022/06/01 00:43:44;;;;;;;4.15;3.70;;;;;;;;;;2079770;28;20088;-81
2022/06/01 00:45:03;;;;;;;4.20;4.00;;;;;;;;;;2076657;28;20033;-81
2022/06/01 00:46:22;;;;;;;4.47;4.10;;;;;;;;;;2076674;28;20640;-81
2022/06/01 00:47:42;;;;;;;3.65;3.45;;;;;;;;;;2079034;28;20037;-81
2022/06/01 00:49:09;;;;;;;4.22;3.83;;;;;;;;;;2078478;28;20467;-81
2022/06/01 00:50:33;;;;;;;4.50;4.20;;;;;;;;;;2077806;28;20124;-79
2022/06/01 00:51:52;;;;;;;4.88;4.53;;;;;;;;;;2078793;28;20065;-79
2022/06/01 00:53:31;;;;;;;4.43;4.10;;;;;;;;;;2077118;28;20037;-79
2022/06/01 00:54:50;;;;;;;4.18;3.90;;;;;;;;;;2077423;28;20033;-79
2022/06/01 00:56:16;;;;;;;4.55;4.22;;;;;;;;;;2076697;28;20037;-78
2022/06/01 00:57:34;;;;;;;4.40;4.10;;;;;;;;;;2076776;28;20042;-78
2022/06/01 00:58:55;;;;;;;4.88;4.47;;;;;;;;;;2083090;28;20108;-78
2022/06/01 01:00:16;;;;;;;4.68;4.35;;;;;;;;;;2079861;28;20041;-78
2022/06/01 01:01:35;;;;;;;4.45;4.15;;;;;;;;;;2076163;28;20022;-79
2022/06/01 01:02:55;;;;;;;4.78;4.38;;;;;;;;;;2077435;28;20432;-79
2022/06/01 01:04:14;;;;;;;4.50;4.13;;;;;;;;;;2079793;28;20479;-79
2022/06/01 01:05:33;;;;;;;4.70;4.25;;;;;;;;;;2074131;28;20030;-79
2022/06/01 01:06:52;;;;;;;4.32;4.13;;;;;;;;;;2076149;28;20022;-79
2022/06/01 01:08:12;;;;;;;4.43;4.07;;;;;;;;;;2078062;28;20038;-80
2022/06/01 01:09:31;;;;;;;4.15;3.85;;;;;;;;;;2077302;28;20503;-79
2022/06/01 01:10:50;;;;;;;4.20;3.78;;;;;;;;;;2076800;28;20420;-79
2022/06/01 01:12:10;;;;;;;4.25;3.95;;;;;;;;;;2080392;28;20034;-79
2022/06/01 01:13:29;;;;;;;5.13;4.18;;;;;;;;;;2075846;28;20483;-79
2022/06/01 01:14:48;;;;;;;4.32;4.03;;;;;;;;;;2077115;28;20120;-78
2022/06/01 01:16:07;;;;;;;4.22;3.92;;;;;;;;;;2077675;28;20034;-79
2022/06/01 01:17:26;;;;;;;4.40;4.10;;;;;;;;;;2074829;28;20030;-79
2022/06/01 01:18:46;;;;;;;3.95;3.75;;;;;;;;;;2076047;28;20042;-79
2022/06/01 01:20:06;;;;;;;4.47;4.18;;;;;;;;;;2077661;28;20069;-79
2022/06/01 01:21:31;;;;;;;4.45;3.92;;;;;;;;;;2076506;28;20052;-79
2022/06/01 01:22:53;;;;;;;3.97;3.67;;;;;;;;;;2077251;28;20387;-79
2022/06/01 01:24:15;;;;;;;3.95;3.70;;;;;;;;;;2077377;28;20034;-79
2022/06/01 01:25:38;;;;;;;4.38;3.95;;;;;;;;;;2077438;28;20029;-79
2022/06/01 01:26:57;;;;;;;4.10;3.90;;;;;;;;;;2085545;28;20486;-79
2022/06/01 01:28:16;;;;;;;4.03;3.72;;;;;;;;;;2082370;28;20112;-79
2022/06/01 01:29:39;;;;;;;4.50;4.20;;;;;;;;;;2077485;28;20037;-79
2022/06/01 01:31:10;;;;;;;3.70;3.50;;;;;;;;;;2084845;28;20028;-79
2022/06/01 01:32:29;;;;;;;4.07;3.78;;;;;;;;;;2081209;28;20037;-79
2022/06/01 01:33:50;;;;;;;4.07;3.78;;;;;;;;;;2078483;28;20661;-79
2022/06/01 01:35:09;;;;;;;3.95;3.63;;;;;;;;;;2077380;28;20034;-79
2022/06/01 01:36:33;;;;;;;3.67;3.40;;;;;;;;;;2079644;28;20034;-79
2022/06/01 01:37:52;;;;;;;3.85;3.55;;;;;;;;;;2078413;28;20033;-79
2022/06/01 01:39:12;;;;;;;3.80;3.50;;;;;;;;;;2076688;28;20130;-79
2022/06/01 01:40:32;;;;;;;3.70;3.50;;;;;;;;;;2077984;28;20034;-79
2022/06/01 01:41:53;;;;;;;4.00;3.78;;;;;;;;;;2076668;28;20034;-79
2022/06/01 01:43:12;;;;;;;3.90;3.70;;;;;;;;;;2077663;28;20479;-78
2022/06/01 01:44:44;;;;;;;3.67;3.47;;;;;;;;;;2075491;28;20034;-79
2022/06/01 01:46:03;;;;;;;3.67;3.47;;;;;;;;;;2078620;28;20030;-79
2022/06/01 01:47:22;;;;;;;5.65;4.03;;;;;;;;;;2076294;28;20025;-79
2022/06/01 01:48:41;;;;;;;3.72;3.53;;;;;;;;;;2085743;28;20065;-79
2022/06/01 01:50:00;;;;;;;4.18;3.88;;;;;;;;;;2082010;28;20133;-79
2022/06/01 01:51:20;;;;;;;3.67;3.47;;;;;;;;;;2078640;28;20017;-79
2022/06/01 01:52:39;;;;;;;3.60;3.40;;;;;;;;;;2078681;28;20034;-79
2022/06/01 01:53:59;;;;;;;4.15;3.80;;;;;;;;;;2077983;28;20030;-79
2022/06/01 01:55:25;;;;;;;3.58;3.38;;;;;;;;;;2079410;28;20033;-79
2022/06/01 01:56:53;;;;;;;3.30;3.10;;;;;;;;;;2076464;28;20029;-79
2022/06/01 01:58:37;;;;;;;3.13;2.92;;;;;;;;;;2076251;28;20022;-78
2022/06/01 02:00:10;;;;;;;4.00;3.60;;;;;;;;;;2075102;28;20104;-79
2022/06/01 02:01:45;;;;;;;3.35;3.15;;;;;;;;;;2076591;28;20069;-78
2022/06/01 02:03:07;;;;;;;4.15;3.10;;;;;;;;;;2078554;28;20025;-78
2022/06/01 02:06:23;;;;;;;3.42;3.22;;;;;;;;;;2077766;28;20033;-79
2022/06/01 02:07:46;;;;;;;3.50;3.30;;;;;;;;;;2078683;28;20034;-79
2022/06/01 02:09:07;;;;;;;2.65;2.55;;;;;;;;;;2078296;28;20033;-79
2022/06/01 02:13:45;;;;;;;3.03;2.83;;;;;;;;;;2077759;28;20030;-81
2022/06/01 02:15:04;;;;;;;2.60;2.50;;;;;;;;;;2076687;28;20021;-81
2022/06/01 02:16:25;;;;;;;3.33;3.13;;;;;;;;;;2077650;28;20570;-81
2022/06/01 02:17:51;;;;;;;2.70;2.60;;;;;;;;;;2081016;28;20045;-82
2022/06/01 02:19:13;;;;;;;3.17;2.88;;;;;;;;;;2078240;28;20137;-81
2022/06/01 02:20:36;;;;;;;2.60;2.42;;;;;;;;;;2080794;28;20610;-82
2022/06/01 02:21:55;;;;;;;2.92;2.72;;;;;;;;;;2083080;28;20030;-81
2022/06/01 02:23:14;;;;;;;2.75;2.65;;;;;;;;;;2081719;28;20026;-82
2022/06/01 02:24:33;;;;;;;2.60;2.50;;;;;;;;;;2077387;28;20116;-81
2022/06/01 02:25:53;;;;;;;2.63;2.53;;;;;;;;;;2078761;28;20022;-82
2022/06/01 02:27:12;;;;;;;2.83;2.63;;;;;;;;;;2079333;28;20022;-82
2022/06/01 02:28:32;;;;;;;2.85;2.65;;;;;;;;;;2076778;28;20391;-82
2022/06/01 02:29:54;;;;;;;2.90;2.70;;;;;;;;;;2078187;28;20104;-79
2022/06/01 02:31:15;;;;;;;2.22;2.13;;;;;;;;;;2075989;28;20026;-79
2022/06/01 02:32:35;;;;;;;2.65;2.55;;;;;;;;;;2081193;28;20033;-79
2022/06/01 02:33:54;;;;;;;4.28;2.65;;;;;;;;;;2078288;28;20033;-79
2022/06/01 02:35:14;;;;;;;4.10;2.55;;;;;;;;;;2080219;28;20077;-79
2022/06/01 02:36:33;;;;;;;2.78;2.67;;;;;;;;;;2075551;28;20021;-79
2022/06/01 02:37:54;;;;;;;2.80;2.65;;;;;;;;;;2078417;28;20112;-79
2022/06/01 02:39:15;;;;;;;2.78;2.47;;;;;;;;;;2080957;28;20104;-79
2022/06/01 02:40:34;;;;;;;2.58;2.47;;;;;;;;;;2084633;28;20423;-79
2022/06/01 02:43:50;;;;;;;2.88;2.67;;;;;;;;;;2076364;28;20026;-79
2022/06/01 02:45:10;;;;;;;2.92;2.63;;;;;;;;;;2077677;28;20034;-79
2022/06/01 02:46:30;;;;;;;3.40;3.20;;;;;;;;;;2079839;28;20034;-79
2022/06/01 02:47:50;;;;;;;3.10;2.88;;;;;;;;;;2078194;28;20041;-79
2022/06/01 02:49:09;;;;;;;3.13;2.83;;;;;;;;;;2077698;28;20030;-79
2022/06/01 02:50:29;;;;;;;2.75;2.55;;;;;;;;;;2076523;28;21290;-79
2022/06/01 02:51:48;;;;;;;3.22;3.03;;;;;;;;;;2084261;28;20029;-79
2022/06/01 02:53:07;;;;;;;2.75;2.60;;;;;;;;;;2076835;28;20491;-79
2022/06/01 02:54:26;;;;;;;2.95;2.75;;;;;;;;;;2077394;28;20022;-79
2022/06/01 02:55:45;;;;;;;3.13;2.88;;;;;;;;;;2077328;28;20030;-79
2022/06/01 02:57:04;;;;;;;2.70;2.60;;;;;;;;;;2078319;28;20026;-79
2022/06/01 02:58:23;;;;;;;2.92;2.70;;;;;;;;;;2076055;28;20084;-79
2022/06/01 02:59:42;;;;;;;3.40;3.08;;;;;;;;;;2076792;28;20025;-79
2022/06/01 03:01:01;;;;;;;3.65;3.40;;;;;;;;;;2078175;28;20491;-82
2022/06/01 03:02:20;;;;;;;3.30;3.10;;;;;;;;;;2075326;28;20025;-82
2022/06/01 03:03:39;;;;;;;3.30;3.10;;;;;;;;;;2077012;28;20109;-82
2022/06/01 03:04:59;;;;;;;3.20;3.00;;;;;;;;;;2080248;28;20495;-82
2022/06/01 03:06:17;;;;;;;3.05;2.95;;;;;;;;;;2077015;28;20030;-82
2022/06/01 03:07:36;;;;;;;3.15;2.95;;;;;;;;;;2078004;28;20026;-81
2022/06/01 03:08:55;;;;;;;3.53;2.92;;;;;;;;;;2078296;28;20117;-81
2022/06/01 03:10:14;;;;;;;3.50;3.20;;;;;;;;;;2077333;28;20109;-81
2022/06/01 03:11:33;;;;;;;3.20;3.00;;;;;;;;;;2078058;28;20435;-82
2022/06/01 03:12:53;;;;;;;3.58;3.38;;;;;;;;;;2078179;28;20026;-82
2022/06/01 03:14:12;;;;;;;4.22;3.20;;;;;;;;;;2080720;28;20041;-81
2022/06/01 03:15:30;;;;;;;3.10;2.90;;;;;;;;;;2074495;28;20104;-82
2022/06/01 03:16:49;;;;;;;3.92;3.17;;;;;;;;;;2077623;28;20516;-82
2022/06/01 03:18:08;;;;;;;3.33;3.08;;;;;;;;;;2079121;28;20879;-82
2022/06/01 03:19:27;;;;;;;3.42;3.22;;;;;;;;;;2077168;28;20453;-81
2022/06/01 03:20:46;;;;;;;2.90;2.70;;;;;;;;;;2075565;28;20576;-82
2022/06/01 03:22:05;;;;;;;6.65;3.30;;;;;;;;;;2077513;28;20033;-82
2022/06/01 03:23:24;;;;;;;3.50;3.20;;;;;;;;;;2077369;28;20026;-79
2022/06/01 03:24:43;;;;;;;2.92;2.72;;;;;;;;;;2078362;28;20022;-79
2022/06/01 03:26:02;;;;;;;4.40;3.40;;;;;;;;;;2080734;28;20057;-79
2022/06/01 03:27:21;;;;;;;4.35;3.95;;;;;;;;;;2080341;28;20500;-79
2022/06/01 03:28:40;;;;;;;2.70;2.60;;;;;;;;;;2078992;28;20030;-79
2022/06/01 03:30:03;;;;;;;3.50;3.20;;;;;;;;;;2081067;28;20026;-79
2022/06/01 03:31:22;;;;;;;3.63;2.95;;;;;;;;;;2082456;28;20515;-79
2022/06/01 03:32:43;;;;;;;3.30;2.95;;;;;;;;;;2081064;28;20026;-79
2022/06/01 03:34:02;;;;;;;2.90;2.75;;;;;;;;;;2080321;28;20999;-79
2022/06/01 03:35:22;;;;;;;2.72;2.53;;;;;;;;;;2076731;28;20026;-79
2022/06/01 03:36:41;;;;;;;2.92;2.72;;;;;;;;;;2077842;28;20064;-79
2022/06/01 03:38:00;;;;;;;3.42;3.13;;;;;;;;;;2084939;28;20037;-79
2022/06/01 03:39:19;;;;;;;3.42;3.13;;;;;;;;;;2079373;28;20442;-79
2022/06/01 03:40:38;;;;;;;3.70;3.13;;;;;;;;;;2077620;28;20061;-79
2022/06/01 03:41:59;;;;;;;2.88;2.67;;;;;;;;;;2077832;28;20038;-79
2022/06/01 03:43:19;;;;;;;3.45;2.88;;;;;;;;;;2077633;28;20407;-79
2022/06/01 03:46:17;;;;;;;3.33;3.13;;;;;;;;;;2076240;28;20100;-79
2022/06/01 03:47:35;;;;;;;3.50;3.30;;;;;;;;;;2077110;28;20029;-79
2022/06/01 03:48:54;;;;;;;3.15;2.95;;;;;;;;;;2078257;28;20116;-78
2022/06/01 03:50:13;;;;;;;3.28;3.08;;;;;;;;;;2076565;28;20502;-79
2022/06/01 03:51:31;;;;;;;3.45;2.78;;;;;;;;;;2076584;28;20041;-79
2022/06/01 03:52:51;;;;;;;3.47;3.28;;;;;;;;;;2087135;28;20119;-81
2022/06/01 03:54:10;;;;;;;3.60;3.10;;;;;;;;;;2081867;28;20453;-80
2022/06/01 03:55:29;;;;;;;4.45;3.22;;;;;;;;;;2077467;28;20038;-80
2022/06/01 03:56:48;;;;;;;6.55;3.50;;;;;;;;;;2075515;28;20046;-80
2022/06/01 03:58:11;;;;;;;3.63;3.42;;;;;;;;;;2079521;28;20033;-80
2022/06/01 03:59:30;;;;;;;3.67;3.40;;;;;;;;;;2078930;28;20033;-80
2022/06/01 04:00:49;;;;;;;6.70;2.83;;;;;;;;;;2077718;28;20037;-80
2022/06/01 04:02:08;;;;;;;3.40;3.20;;;;;;;;;;2075850;28;20215;-80
2022/06/01 04:03:27;;;;;;;3.65;3.45;;;;;;;;;;2080782;28;20025;-80
2022/06/01 04:04:46;;;;;;;3.25;3.05;;;;;;;;;;2074360;28;20026;-80
2022/06/01 04:06:05;;;;;;;3.38;3.17;;;;;;;;;;2076574;28;20034;-81
2022/06/01 04:07:23;;;;;;;3.90;3.13;;;;;;;;;;2084501;28;20184;-80
2022/06/01 04:08:42;;;;;;;3.83;3.53;;;;;;;;;;2079348;28;20474;-80
2022/06/01 04:10:01;;;;;;;4.53;3.95;;;;;;;;;;2074525;28;20533;-80
2022/06/01 04:11:20;;;;;;;3.70;3.50;;;;;;;;;;2082480;28;20021;-80
2022/06/01 04:12:39;;;;;;;3.90;3.58;;;;;;;;;;2081909;28;20547;-81
2022/06/01 04:13:58;;;;;;;3.42;3.20;;;;;;;;;;2086034;28;20045;-81
2022/06/01 04:15:16;;;;;;;3.97;3.67;;;;;;;;;;2078383;28;20037;-80
2022/06/01 04:16:36;;;;;;;4.30;3.75;;;;;;;;;;2072336;28;20026;-80
2022/06/01 04:17:55;;;;;;;3.35;3.15;;;;;;;;;;2076422;28;20030;-80
2022/06/01 04:19:14;;;;;;;6.03;3.47;;;;;;;;;;2077288;28;20045;-80
2022/06/01 04:20:33;;;;;;;3.72;3.15;;;;;;;;;;2077954;28;20061;-80
2022/06/01 04:21:53;;;;;;;3.70;3.25;;;;;;;;;;2073556;28;20026;-81
2022/06/01 04:23:12;;;;;;;3.42;3.08;;;;;;;;;;2075377;28;20503;-80
2022/06/01 04:24:32;;;;;;;3.38;3.10;;;;;;;;;;2075725;28;20041;-80
2022/06/01 04:25:51;;;;;;;3.20;3.00;;;;;;;;;;2077488;28;20064;-80
2022/06/01 04:27:10;;;;;;;3.33;3.13;;;;;;;;;;2077978;28;20033;-80
2022/06/01 04:28:29;;;;;;;3.08;2.88;;;;;;;;;;2077793;28;20030;-80
2022/06/01 04:29:47;;;;;;;3.72;3.47;;;;;;;;;;2078195;28;20565;-81
2022/06/01 04:31:06;;;;;;;6.07;3.53;;;;;;;;;;2076987;28;20105;-82
2022/06/01 04:32:28;;;;;;;3.67;3.47;;;;;;;;;;2083665;28;20032;-80
2022/06/01 04:33:47;;;;;;;3.10;2.90;;;;;;;;;;2079940;28;20487;-79
2022/06/01 04:35:07;;;;;;;5.10;2.72;;;;;;;;;;2085576;28;20029;-81
2022/06/01 04:36:26;;;;;;;3.17;2.97;;;;;;;;;;2080185;28;20029;-79
2022/06/01 04:37:45;;;;;;;3.42;3.20;;;;;;;;;;2072534;28;20029;-80
2022/06/01 04:39:04;;;;;;;2.80;2.70;;;;;;;;;;2074409;28;20030;-80
2022/06/01 04:40:23;;;;;;;2.90;2.70;;;;;;;;;;2078721;28;20037;-81
2022/06/01 04:41:42;;;;;;;3.38;2.72;;;;;;;;;;2078539;28;20029;-80
2022/06/01 04:43:01;;;;;;;3.15;2.95;;;;;;;;;;2077276;28;20025;-80
2022/06/01 04:44:20;;;;;;;4.20;3.40;;;;;;;;;;2076971;28;20037;-80
2022/06/01 04:45:39;;;;;;;4.50;2.80;;;;;;;;;;2077288;28;20076;-79
2022/06/01 04:46:58;;;;;;;3.38;3.08;;;;;;;;;;2078906;28;20025;-79
2022/06/01 04:48:17;;;;;;;3.13;2.92;;;;;;;;;;2077220;28;20430;-81
2022/06/01 04:49:36;;;;;;;3.97;2.78;;;;;;;;;;2086119;28;20490;-79
2022/06/01 04:50:56;;;;;;;3.42;3.22;;;;;;;;;;2079604;28;20030;-82
2022/06/01 04:52:15;;;;;;;3.75;3.25;;;;;;;;;;2076723;28;20034;-79
2022/06/01 04:53:34;;;;;;;2.92;2.75;;;;;;;;;;2076491;28;20494;-81
2022/06/01 04:54:53;;;;;;;3.00;2.80;;;;;;;;;;2075807;28;20038;-80
2022/06/01 04:56:12;;;;;;;3.13;2.92;;;;;;;;;;2074592;28;20034;-79
2022/06/01 04:57:31;;;;;;;2.83;2.63;;;;;;;;;;2075939;28;20033;-78
2022/06/01 04:58:50;;;;;;;3.03;2.83;;;;;;;;;;2078669;28;20493;-79
2022/06/01 05:00:10;;;;;;;3.78;2.90;;;;;;;;;;2078398;28;20050;-77
2022/06/01 05:01:29;;;;;;;2.95;2.70;;;;;;;;;;2079920;28;20037;-78
2022/06/01 05:02:48;;;;;;;2.80;2.60;;;;;;;;;;2077318;28;20523;-79
2022/06/01 05:04:07;;;;;;;3.25;3.05;;;;;;;;;;2074364;28;20033;-80
2022/06/01 05:05:27;;;;;;;3.58;3.30;;;;;;;;;;2078985;28;20026;-78
2022/06/01 05:06:45;;;;;;;2.90;2.72;;;;;;;;;;2081523;28;20029;-78
2022/06/01 05:08:05;;;;;;;3.58;3.38;;;;;;;;;;2082983;28;20025;-78
2022/06/01 05:09:24;;;;;;;3.22;2.92;;;;;;;;;;2082124;28;20544;-78
2022/06/01 05:10:43;;;;;;;3.85;3.55;;;;;;;;;;2079161;28;20025;-78
2022/06/01 05:12:03;;;;;;;4.00;3.72;;;;;;;;;;2079918;28;20026;-78
2022/06/01 05:13:24;;;;;;;3.20;3.00;;;;;;;;;;2078843;28;20506;-79
2022/06/01 05:14:43;;;;;;;4.97;3.03;;;;;;;;;;2079038;28;20030;-79
2022/06/01 05:16:03;;;;;;;2.40;2.30;;;;;;;;;;2080041;28;20569;-78
2022/06/01 05:17:23;;;;;;;2.90;2.70;;;;;;;;;;2077575;28;20073;-79
2022/06/01 05:18:42;;;;;;;4.68;3.03;;;;;;;;;;2073370;28;20443;-78
2022/06/01 05:20:01;;;;;;;3.75;3.05;;;;;;;;;;2071159;28;20029;-77
2022/06/01 05:21:20;;;;;;;3.33;3.03;;;;;;;;;;2075969;28;20513;-78
2022/06/01 05:22:39;;;;;;;3.40;3.20;;;;;;;;;;2077306;28;20042;-79
2022/06/01 05:23:58;;;;;;;2.80;2.70;;;;;;;;;;2079589;28;20116;-79
2022/06/01 05:25:17;;;;;;;3.67;2.72;;;;;;;;;;2082036;28;20029;-79
2022/06/01 05:26:36;;;;;;;3.67;2.78;;;;;;;;;;2081672;28;20038;-78
2022/06/01 05:27:55;;;;;;;3.17;2.88;;;;;;;;;;2075041;28;20037;-81
2022/06/01 05:29:15;;;;;;;2.90;2.70;;;;;;;;;;2077184;28;20025;-80
2022/06/01 05:30:34;;;;;;;3.15;2.60;;;;;;;;;;2079423;28;20033;-80
2022/06/01 05:31:52;;;;;;;3.15;2.95;;;;;;;;;;2082297;28;20426;-81
2022/06/01 05:33:11;;;;;;;3.13;2.85;;;;;;;;;;2077524;28;20041;-81
2022/06/01 05:34:30;;;;;;;3.10;2.90;;;;;;;;;;2076025;28;20030;-80
2022/06/01 05:35:49;;;;;;;2.83;2.70;;;;;;;;;;2078659;28;20156;-81
2022/06/01 05:37:08;;;;;;;2.58;2.47;;;;;;;;;;2077696;28;20037;-80
2022/06/01 05:38:27;;;;;;;6.20;2.50;;;;;;;;;;2077820;28;20068;-82
2022/06/01 05:39:45;;;;;;;3.20;2.90;;;;;;;;;;2074910;28;20045;-82
2022/06/01 05:41:04;;;;;;;2.97;2.78;;;;;;;;;;2077788;28;20053;-81
2022/06/01 05:42:23;;;;;;;2.97;2.78;;;;;;;;;;2078260;28;20033;-82
2022/06/01 05:43:42;;;;;;;3.30;3.10;;;;;;;;;;2075649;28;20025;-81
2022/06/01 05:45:04;;;;;;;3.38;3.08;;;;;;;;;;2077184;28;20545;-82
2022/06/01 05:46:23;;;;;;;3.30;3.00;;;;;;;;;;2079527;28;20022;-82
2022/06/01 05:47:42;;;;;;;4.22;3.33;;;;;;;;;;2074799;28;20077;-82
2022/06/01 05:49:02;;;;;;;3.10;2.85;;;;;;;;;;2081540;28;20033;-83
2022/06/01 05:50:22;;;;;;;3.25;3.05;;;;;;;;;;2078896;28;20033;-82
2022/06/01 05:51:42;;;;;;;2.88;2.67;;;;;;;;;;2074616;28;20151;-82
2022/06/01 05:53:02;;;;;;;3.13;2.92;;;;;;;;;;2082750;28;20061;-81
2022/06/01 05:54:21;;;;;;;3.30;3.10;;;;;;;;;;2082092;28;20073;-81
2022/06/01 05:55:41;;;;;;;4.55;2.97;;;;;;;;;;2077669;28;20033;-81
2022/06/01 05:57:00;;;;;;;3.05;2.85;;;;;;;;;;2077696;28;20038;-80
2022/06/01 05:58:19;;;;;;;3.17;3.00;;;;;;;;;;2075494;28;20092;-80
2022/06/01 05:59:38;;;;;;;2.65;2.53;;;;;;;;;;2080011;28;20485;-80
2022/06/01 06:00:59;;;;;;;2.67;2.58;;;;;;;;;;2079022;28;20037;-80
2022/06/01 06:02:18;;;;;;;3.20;2.70;;;;;;;;;;2088374;28;20423;-81
2022/06/01 06:03:37;;;;;;;3.47;2.85;;;;;;;;;;2077630;28;20038;-80
2022/06/01 06:04:56;;;;;;;2.80;2.60;;;;;;;;;;2077954;28;20030;-80
2022/06/01 06:06:15;;;;;;;4.90;2.97;;;;;;;;;;2078959;28;20025;-80
2022/06/01 06:07:34;;;;;;;3.53;2.83;;;;;;;;;;2080322;28;20104;-81
2022/06/01 06:08:55;;;;;;;4.38;3.00;;;;;;;;;;2078377;28;20037;-81
2022/06/01 06:10:14;;;;;;;2.58;2.40;;;;;;;;;;2078499;28;20021;-80
2022/06/01 06:11:34;;;;;;;5.40;2.75;;;;;;;;;;2078992;28;20432;-80
2022/06/01 06:12:53;;;;;;;2.92;2.63;;;;;;;;;;2083147;28;20128;-80
2022/06/01 06:14:12;;;;;;;4.60;2.90;;;;;;;;;;2079728;28;20038;-81
2022/06/01 06:15:30;;;;;;;2.67;2.47;;;;;;;;;;2077621;28;20155;-81
2022/06/01 06:16:49;;;;;;;3.03;2.72;;;;;;;;;;2077811;28;20471;-80
2022/06/01 06:18:12;;;;;;;2.78;2.63;;;;;;;;;;2077207;28;20480;-80
2022/06/01 06:19:38;;;;;;;2.85;2.65;;;;;;;;;;2115658;27;20129;-70
2022/06/01 06:20:56;;;;;;;3.20;2.95;;;;;;;;;;2108145;28;20032;-68
2022/06/01 06:22:15;;;;;;;3.53;2.83;;;;;;;;;;2107909;28;20123;-68
2022/06/01 06:23:34;;;;;;;2.72;2.55;;;;;;;;;;2106805;28;20028;-68
2022/06/01 06:24:53;;;;;;;3.20;3.00;;;;;;;;;;2108327;28;20061;-68
2022/06/01 06:26:12;;;;;;;3.08;2.88;;;;;;;;;;2108323;28;20393;-68
2022/06/01 06:27:31;;;;;;;2.78;2.67;;;;;;;;;;2107943;28;20028;-68
2022/06/01 06:28:50;;;;;;;3.45;2.33;;;;;;;;;;2105281;28;20071;-68
2022/06/01 06:30:09;;;;;;;3.17;2.97;;;;;;;;;;2107461;28;20035;-68
2022/06/01 06:31:28;;;;;;;2.80;2.60;;;;;;;;;;2108110;28;20032;-68
2022/06/01 06:32:47;;;;;;;4.25;2.97;;;;;;;;;;2106811;28;20032;-68
2022/06/01 06:34:06;;;;;;;3.10;2.63;;;;;;;;;;2107521;28;20028;-68
2022/06/01 06:35:25;;;;;;;2.80;2.60;;;;;;;;;;2108529;28;20111;-68
2022/06/01 06:36:44;;;;;;;2.55;2.45;;;;;;;;;;2107682;28;20023;-69
2022/06/01 06:38:04;;;;;;;2.97;2.78;;;;;;;;;;2107406;28;20511;-69
2022/06/01 06:39:23;;;;;;;2.85;2.65;;;;;;;;;;2107095;28;20450;-68
2022/06/01 06:40:42;;;;;;;3.00;2.80;;;;;;;;;;2106537;28;20036;-69
2022/06/01 06:42:01;;;;;;;2.85;2.65;;;;;;;;;;2107285;28;20104;-69
2022/06/01 06:43:21;;;;;;;3.17;2.25;;;;;;;;;;2108108;28;20465;-69
2022/06/01 06:44:40;;;;;;;2.78;2.58;;;;;;;;;;2107094;28;20394;-69
2022/06/01 06:46:01;;;;;;;3.42;2.38;;;;;;;;;;2107635;28;20036;-69
2022/06/01 06:47:20;;;;;;;2.83;2.63;;;;;;;;;;2107843;28;20107;-69
2022/06/01 06:48:40;;;;;;;3.10;2.90;;;;;;;;;;2107999;28;20024;-69
2022/06/01 06:49:59;;;;;;;3.10;2.90;;;;;;;;;;2107769;28;20054;-69
2022/06/01 06:51:19;;;;;;;3.60;3.30;;;;;;;;;;2107065;28;20044;-69
2022/06/01 06:52:39;;;;;;;4.55;4.25;;;;;;;;;;2106791;28;20079;-69
2022/06/01 06:53:58;;;;;;;3.40;2.70;;;;;;;;;;2107691;28;20393;-68
2022/06/01 06:55:17;;;;;;;3.22;3.03;;;;;;;;;;2107623;28;20037;-68
2022/06/01 06:56:36;;;;;;;2.88;2.67;;;;;;;;;;2107388;28;20393;-68
2022/06/01 06:57:54;;;;;;;2.78;2.58;;;;;;;;;;2106746;28;20029;-68
2022/06/01 06:59:15;;;;;;;3.20;2.47;;;;;;;;;;2106144;28;20111;-68
2022/06/01 07:00:34;;;;;;;3.00;2.80;;;;;;;;;;2107422;28;20031;-69
2022/06/01 07:01:53;;;;;;;3.17;2.55;;;;;;;;;;2107870;28;20035;-68
2022/06/01 07:03:13;;;;;;;3.17;2.80;;;;;;;;;;2108649;28;20111;-70
2022/06/01 07:04:31;;;;;;;3.17;2.97;;;;;;;;;;2105546;28;20037;-68
2022/06/01 07:06:09;;;;;;;2.80;2.60;;;;;;;;;;2107368;28;20056;-68
2022/06/01 07:07:28;;;;;;;2.60;2.42;;;;;;;;;;2107273;28;20084;-68
2022/06/01 07:08:48;;;;;;;2.88;2.67;;;;;;;;;;2108140;28;20035;-68
2022/06/01 07:10:07;;;;;;;3.10;2.90;;;;;;;;;;2105034;28;20028;-68
2022/06/01 07:11:28;;;;;;;4.13;2.72;;;;;;;;;;2102838;28;20382;-68
2022/06/01 07:12:47;;;;;;;2.45;2.35;;;;;;;;;;2100818;28;20025;-68
2022/06/01 07:14:06;;;;;;;5.07;2.78;;;;;;;;;;2103451;28;20103;-67
2022/06/01 07:15:25;;;;;;;3.63;2.53;;;;;;;;;;2103024;28;21028;-68
2022/06/01 07:16:44;;;;;;;4.28;2.83;;;;;;;;;;2103000;28;20028;-68
2022/06/01 07:18:03;;;;;;;2.88;2.50;;;;;;;;;;2102828;28;20017;-68
2022/06/01 07:19:22;;;;;;;2.88;2.67;;;;;;;;;;2101366;28;20048;-68
2022/06/01 07:20:41;;;;;;;3.30;3.10;;;;;;;;;;2101762;28;20036;-68
2022/06/01 07:22:00;;;;;;;3.20;3.00;;;;;;;;;;2103214;28;20025;-68
2022/06/01 07:23:19;;;;;;;2.70;2.50;;;;;;;;;;2101711;28;20037;-68
2022/06/01 07:24:38;;;;;;;2.53;2.42;;;;;;;;;;2100861;28;20482;-68
2022/06/01 07:25:57;;;;;;;5.10;2.30;;;;;;;;;;2101905;28;20028;-68
2022/06/01 07:27:16;;;;;;;2.35;2.03;;;;;;;;;;2103985;28;20017;-68
2022/06/01 07:28:35;;;;;;;2.83;2.63;;;;;;;;;;2103391;28;20163;-68
2022/06/01 07:29:54;;;;;;;2.58;2.38;;;;;;;;;;2099967;28;20561;-68
2022/06/01 07:31:13;;;;;;;2.42;2.33;;;;;;;;;;2097241;28;20064;-68
2022/06/01 07:32:32;;;;;;;2.35;2.25;;;;;;;;;;2096088;28;20111;-68
2022/06/01 07:33:51;;;;;;;2.88;2.30;;;;;;;;;;2095375;28;20040;-69
2022/06/01 07:35:10;;;;;;;2.47;2.38;;;;;;;;;;2095729;28;20060;-68
2022/06/01 07:36:30;;;;;;;3.03;2.30;;;;;;;;;;2096727;28;20028;-69
2022/06/01 07:44:22;;;;;;;2.67;2.40;;;;;;;;;;2095682;28;20029;-68
2022/06/01 07:45:45;;;;;;;2.92;2.15;;;;;;;;;;2094943;28;20021;-68
2022/06/01 07:47:04;;;;;;;4.40;2.10;;;;;;;;;;2096357;28;20115;-68
2022/06/01 07:48:23;;;;;;;2.55;1.80;;;;;;;;;;2095549;28;20029;-68
2022/06/01 07:49:42;;;;;;;3.63;2.30;;;;;;;;;;2096625;28;20390;-68
2022/06/01 07:51:01;;;;;;;2.20;1.95;;;;;;;;;;2095621;28;20398;-68
2022/06/01 07:52:22;;;;;;;2.42;2.30;;;;;;;;;;2096404;28;20040;-68
2022/06/01 07:53:41;;;;;;;1.70;1.60;;;;;;;;;;2096639;28;20147;-68
2022/06/01 07:55:00;;;;;;;1.98;1.80;;;;;;;;;;2096853;28;20028;-68
2022/06/01 07:56:19;;;;;;;1.67;1.58;;;;;;;;;;2096766;28;20482;-68
2022/06/01 07:57:38;;;;;;;2.35;1.90;;;;;;;;;;2096781;28;20033;-69
2022/06/01 07:58:57;;;;;;;1.95;1.85;;;;;;;;;;2097657;28;20028;-68
2022/06/01 08:00:16;;;;;;;3.97;2.75;;;;;;;;;;2096003;28;20052;-68
2022/06/01 08:01:36;;;;;;;3.95;1.58;;;;;;;;;;2096429;28;20415;-68
2022/06/01 08:02:54;;;;;;;1.60;1.50;;;;;;;;;;2096605;28;20486;-70
2022/06/01 08:04:16;;;;;;;4.20;1.70;;;;;;;;;;2096949;28;20040;-69
2022/06/01 08:05:35;;;;;;;1.90;1.80;;;;;;;;;;2095291;28;20020;-68
2022/06/01 08:06:54;;;;;;;2.00;1.90;;;;;;;;;;2097211;28;20025;-69
2022/06/01 08:08:13;;;;;;;2.17;1.98;;;;;;;;;;2097777;28;20032;-68
2022/06/01 08:09:32;;;;;;;1.88;1.77;;;;;;;;;;2096762;28;20028;-68
2022/06/01 08:10:51;;;;;;;2.03;1.70;;;;;;;;;;2094520;28;20432;-68
2022/06/01 08:13:48;;;;;;;1.75;1.63;;;;;;;;;;2097556;28;20029;-68
2022/06/01 08:15:08;;;;;;;1.52;1.42;;;;;;;;;;2097437;28;20032;-68